Time;durP1;ratioP1;P1;durP2;ratioP2;P2;SDS_P1;SDS_P2;PMS_P1;PMS_P2;Temp;Humidity;BMP_temperature;BMP_pressure;BME280_temperature;BME280_humidity;BME280_pressure;Samples;Min_cycle;Max_cycle;Signal;HPM_P1;HPM_P2
2021/07/03 00:01:12;;;;;;;9.33;6.73;;;;;;;;;;4996770;28;20178;-73
2021/07/03 00:04:17;;;;;;;9.57;6.53;;;;;;;;;;4996708;28;20201;-74
2021/07/03 00:07:20;;;;;;;8.20;6.00;;;;;;;;;;4995748;28;20190;-74
2021/07/03 00:10:24;;;;;;;8.73;6.20;;;;;;;;;;4997156;28;20206;-74
2021/07/03 00:13:29;;;;;;;9.97;7.50;;;;;;;;;;4996816;28;20205;-74
2021/07/03 00:16:33;;;;;;;8.67;6.87;;;;;;;;;;4995663;28;20202;-74
2021/07/03 00:19:38;;;;;;;9.10;6.57;;;;;;;;;;4996313;28;20210;-74
2021/07/03 00:22:42;;;;;;;9.83;6.23;;;;;;;;;;4996457;28;20201;-73
2021/07/03 00:25:45;;;;;;;8.63;7.30;;;;;;;;;;4996038;28;20198;-74
2021/07/03 00:28:50;;;;;;;16.97;6.53;;;;;;;;;;4995459;28;20209;-74
2021/07/03 00:31:54;;;;;;;9.30;7.57;;;;;;;;;;4972892;28;20213;-73
2021/07/03 00:34:58;;;;;;;10.60;7.37;;;;;;;;;;4994697;28;20205;-74
2021/07/03 00:38:03;;;;;;;10.83;7.83;;;;;;;;;;4995849;28;20214;-73
2021/07/03 00:41:08;;;;;;;9.20;7.30;;;;;;;;;;4996048;28;20178;-73
2021/07/03 00:44:11;;;;;;;9.73;6.77;;;;;;;;;;4996157;28;20186;-74
2021/07/03 00:47:17;;;;;;;10.13;7.20;;;;;;;;;;4996175;28;20182;-74
2021/07/03 00:50:23;;;;;;;9.83;6.57;;;;;;;;;;4995623;28;20210;-73
2021/07/03 00:53:27;;;;;;;8.87;7.10;;;;;;;;;;4995119;28;20178;-74
2021/07/03 00:56:31;;;;;;;9.97;6.47;;;;;;;;;;4995302;28;20181;-74
2021/07/03 00:59:41;;;;;;;10.67;6.90;;;;;;;;;;4995526;28;20522;-74
2021/07/03 01:02:47;;;;;;;10.57;6.80;;;;;;;;;;4995266;28;20182;-74
2021/07/03 01:05:52;;;;;;;10.43;7.20;;;;;;;;;;4994981;28;20186;-73
2021/07/03 01:08:58;;;;;;;8.23;6.43;;;;;;;;;;4995010;28;20214;-74
2021/07/03 01:12:04;;;;;;;10.80;7.20;;;;;;;;;;4994784;28;20206;-74
2021/07/03 01:15:10;;;;;;;8.07;6.40;;;;;;;;;;4994988;28;20622;-74
2021/07/03 01:18:14;;;;;;;7.80;6.60;;;;;;;;;;4994337;28;20704;-73
2021/07/03 01:21:23;;;;;;;10.00;6.77;;;;;;;;;;4994331;28;20218;-73
2021/07/03 01:24:28;;;;;;;9.27;7.03;;;;;;;;;;4975276;28;20187;-74
2021/07/03 01:27:33;;;;;;;8.63;6.90;;;;;;;;;;4994786;28;20230;-73
2021/07/03 01:30:39;;;;;;;12.60;6.63;;;;;;;;;;4994845;28;20217;-74
2021/07/03 01:33:43;;;;;;;9.50;6.53;;;;;;;;;;4994766;28;20201;-74
2021/07/03 01:36:48;;;;;;;9.20;6.47;;;;;;;;;;4995715;28;20209;-73
2021/07/03 01:39:53;;;;;;;10.80;6.60;;;;;;;;;;4996807;28;20186;-74
2021/07/03 01:42:57;;;;;;;9.23;7.03;;;;;;;;;;4994587;28;20178;-74
2021/07/03 01:46:02;;;;;;;8.70;6.83;;;;;;;;;;4983310;28;20178;-74
2021/07/03 01:49:11;;;;;;;13.07;7.47;;;;;;;;;;4995376;28;20225;-74
2021/07/03 01:52:23;;;;;;;10.30;6.87;;;;;;;;;;4994702;28;20210;-73
2021/07/03 01:55:33;;;;;;;11.87;7.23;;;;;;;;;;4995152;28;20202;-73
2021/07/03 01:58:38;;;;;;;8.40;6.50;;;;;;;;;;4994135;28;20692;-74
2021/07/03 02:01:53;;;;;;;8.00;6.63;;;;;;;;;;4984727;28;20181;-73
2021/07/03 02:05:01;;;;;;;10.33;6.73;;;;;;;;;;4972452;28;20186;-74
2021/07/03 02:08:06;;;;;;;9.27;6.53;;;;;;;;;;4994259;28;20553;-74
2021/07/03 02:11:11;;;;;;;11.63;7.83;;;;;;;;;;4993824;28;20206;-74
2021/07/03 02:14:18;;;;;;;12.07;8.10;;;;;;;;;;4983349;28;20198;-73
2021/07/03 02:17:41;;;;;;;9.07;7.27;;;;;;;;;;4995005;28;20222;-74
2021/07/03 02:20:52;;;;;;;14.03;7.83;;;;;;;;;;4994278;28;20198;-73
2021/07/03 02:24:03;;;;;;;9.77;7.27;;;;;;;;;;4994326;28;20194;-73
2021/07/03 02:27:07;;;;;;;13.03;7.73;;;;;;;;;;4995248;28;20186;-74
2021/07/03 02:30:14;;;;;;;12.37;8.30;;;;;;;;;;4997333;28;20546;-73
2021/07/03 02:33:20;;;;;;;9.93;7.40;;;;;;;;;;4999025;28;20178;-73
2021/07/03 02:36:27;;;;;;;12.97;7.27;;;;;;;;;;4999538;28;20629;-73
2021/07/03 02:39:32;;;;;;;11.13;7.23;;;;;;;;;;4987343;28;20546;-73
2021/07/03 02:42:37;;;;;;;9.73;7.10;;;;;;;;;;4999905;28;20175;-73
2021/07/03 02:45:41;;;;;;;10.53;7.67;;;;;;;;;;4999842;28;20178;-73
2021/07/03 02:48:46;;;;;;;11.03;7.93;;;;;;;;;;4998416;28;20218;-74
2021/07/03 02:51:51;;;;;;;11.47;8.10;;;;;;;;;;4999161;28;20210;-74
2021/07/03 02:54:56;;;;;;;10.87;7.13;;;;;;;;;;4987147;28;20514;-74
2021/07/03 02:58:00;;;;;;;11.53;7.53;;;;;;;;;;4998591;28;20688;-73
2021/07/03 03:01:08;;;;;;;9.10;7.17;;;;;;;;;;4998037;28;20178;-73
2021/07/03 03:04:13;;;;;;;10.10;6.67;;;;;;;;;;4997812;28;20518;-73
2021/07/03 03:07:17;;;;;;;10.03;7.53;;;;;;;;;;4997242;28;20634;-73
2021/07/03 03:10:21;;;;;;;10.03;7.50;;;;;;;;;;4997422;28;20194;-74
2021/07/03 03:13:27;;;;;;;12.97;7.97;;;;;;;;;;4986189;28;20510;-74
2021/07/03 03:16:32;;;;;;;10.00;7.50;;;;;;;;;;4998057;28;20637;-74
2021/07/03 03:19:41;;;;;;;10.57;7.10;;;;;;;;;;4997376;28;20681;-73
2021/07/03 03:22:46;;;;;;;8.60;7.27;;;;;;;;;;4996655;28;20198;-74
2021/07/03 03:25:53;;;;;;;8.97;6.40;;;;;;;;;;4996693;28;20202;-74
2021/07/03 03:29:00;;;;;;;11.03;6.73;;;;;;;;;;4996422;28;20221;-74
2021/07/03 03:32:06;;;;;;;8.43;5.90;;;;;;;;;;4996325;28;20222;-73
2021/07/03 03:35:12;;;;;;;9.63;6.50;;;;;;;;;;4996084;28;20186;-73
2021/07/03 03:38:16;;;;;;;9.70;6.73;;;;;;;;;;4995377;28;20689;-74
2021/07/03 03:41:21;;;;;;;7.77;6.17;;;;;;;;;;4984216;28;20183;-74
2021/07/03 03:44:25;;;;;;;8.77;6.63;;;;;;;;;;4996132;28;20538;-73
2021/07/03 03:47:29;;;;;;;9.07;7.03;;;;;;;;;;4995979;28;20692;-74
2021/07/03 03:50:35;;;;;;;7.73;6.27;;;;;;;;;;4984180;28;20178;-73
2021/07/03 03:53:40;;;;;;;10.53;6.40;;;;;;;;;;4996502;28;20174;-73
2021/07/03 03:56:44;;;;;;;9.37;7.33;;;;;;;;;;4995420;28;20626;-74
2021/07/03 03:59:52;;;;;;;9.70;7.10;;;;;;;;;;4995069;28;20186;-74
2021/07/03 04:02:59;;;;;;;10.00;6.40;;;;;;;;;;4996048;28;20194;-73
2021/07/03 04:06:09;;;;;;;9.70;6.60;;;;;;;;;;4983746;28;20198;-73
2021/07/03 04:09:13;;;;;;;8.80;6.40;;;;;;;;;;4972818;28;20225;-73
2021/07/03 04:12:18;;;;;;;12.40;7.47;;;;;;;;;;4983736;28;20210;-74
2021/07/03 04:15:22;;;;;;;9.47;7.70;;;;;;;;;;4995806;28;20186;-73
2021/07/03 04:18:26;;;;;;;10.27;7.30;;;;;;;;;;4995484;28;20221;-73
2021/07/03 04:21:30;;;;;;;8.80;7.10;;;;;;;;;;5016112;22;20236;-75
2021/07/03 04:24:34;;;;;;;10.43;6.97;;;;;;;;;;5005914;28;20205;-76
2021/07/03 04:27:41;;;;;;;10.70;6.93;;;;;;;;;;5015028;28;20213;-76
2021/07/03 04:30:45;;;;;;;9.90;7.10;;;;;;;;;;5014774;28;20663;-76
2021/07/03 04:33:49;;;;;;;10.23;6.73;;;;;;;;;;5014712;28;20189;-76
2021/07/03 04:36:54;;;;;;;9.47;7.00;;;;;;;;;;5014470;28;20201;-76
2021/07/03 04:39:58;;;;;;;8.00;6.20;;;;;;;;;;5014900;28;20181;-76
2021/07/03 04:43:02;;;;;;;13.53;7.23;;;;;;;;;;5014714;28;20201;-76
2021/07/03 04:46:06;;;;;;;8.70;6.77;;;;;;;;;;5013963;28;20177;-76
2021/07/03 04:49:17;;;;;;;8.60;7.00;;;;;;;;;;4992075;28;20221;-76
2021/07/03 04:52:22;;;;;;;8.97;6.87;;;;;;;;;;5012784;28;20549;-76
2021/07/03 04:55:26;;;;;;;15.27;8.03;;;;;;;;;;5014578;28;20189;-75
2021/07/03 04:58:30;;;;;;;15.23;7.70;;;;;;;;;;5014454;28;20700;-76
2021/07/03 05:01:34;;;;;;;10.53;6.87;;;;;;;;;;5002241;28;20648;-76
2021/07/03 05:04:39;;;;;;;11.17;7.23;;;;;;;;;;5014495;28;20628;-76
2021/07/03 05:07:44;;;;;;;10.13;6.80;;;;;;;;;;5002325;28;20217;-76
2021/07/03 05:10:52;;;;;;;9.77;7.00;;;;;;;;;;5002293;28;20185;-76
2021/07/03 05:13:57;;;;;;;12.60;7.27;;;;;;;;;;5014138;28;20541;-76
2021/07/03 05:17:01;;;;;;;9.47;6.80;;;;;;;;;;5013207;28;20197;-76
2021/07/03 05:20:07;;;;;;;9.97;7.40;;;;;;;;;;5012773;28;20208;-76
2021/07/03 05:23:11;;;;;;;9.77;7.00;;;;;;;;;;5014034;28;20655;-76
2021/07/03 05:26:15;;;;;;;11.90;8.00;;;;;;;;;;5014406;28;20644;-76
2021/07/03 05:29:19;;;;;;;13.00;8.27;;;;;;;;;;5013758;28;20220;-76
2021/07/03 05:32:24;;;;;;;14.67;7.40;;;;;;;;;;5013637;28;20201;-76
2021/07/03 05:35:28;;;;;;;15.80;7.70;;;;;;;;;;5001667;28;20664;-76
2021/07/03 05:38:40;;;;;;;11.53;8.17;;;;;;;;;;5013614;28;20229;-75
2021/07/03 05:41:44;;;;;;;10.23;8.17;;;;;;;;;;5012892;28;20518;-76
2021/07/03 05:44:48;;;;;;;12.07;8.10;;;;;;;;;;5013551;28;20204;-76
2021/07/03 05:47:53;;;;;;;15.90;8.50;;;;;;;;;;5013738;28;20225;-76
2021/07/03 05:50:57;;;;;;;10.23;7.80;;;;;;;;;;5013854;28;20182;-76
2021/07/03 05:54:01;;;;;;;11.57;8.27;;;;;;;;;;5013837;28;20174;-75
2021/07/03 05:57:05;;;;;;;12.03;8.70;;;;;;;;;;5013543;28;20185;-75
2021/07/03 06:00:10;;;;;;;10.57;8.60;;;;;;;;;;5013227;28;20189;-76
2021/07/03 06:03:22;;;;;;;8.97;6.20;;;;;;;;;;5015592;28;20182;-76
2021/07/03 06:06:26;;;;;;;9.93;7.20;;;;;;;;;;5017088;28;20181;-75
2021/07/03 06:09:30;;;;;;;10.93;6.63;;;;;;;;;;5018138;28;20213;-75
2021/07/03 06:12:34;;;;;;;11.93;7.27;;;;;;;;;;5017171;28;20205;-75
2021/07/03 06:15:38;;;;;;;9.03;6.97;;;;;;;;;;5017524;28;20193;-76
2021/07/03 06:18:42;;;;;;;9.23;7.20;;;;;;;;;;5016611;28;20220;-76
2021/07/03 06:21:46;;;;;;;11.90;7.43;;;;;;;;;;5017292;28;20675;-75
2021/07/03 06:24:51;;;;;;;9.43;7.13;;;;;;;;;;5007360;28;20190;-76
2021/07/03 06:27:55;;;;;;;11.60;7.37;;;;;;;;;;5005184;28;20225;-76
2021/07/03 06:30:59;;;;;;;10.67;7.37;;;;;;;;;;5016582;28;20177;-76
2021/07/03 06:34:04;;;;;;;9.00;7.10;;;;;;;;;;5017188;28;20193;-76
2021/07/03 06:37:09;;;;;;;9.33;6.90;;;;;;;;;;5016333;28;20194;-76
2021/07/03 06:40:13;;;;;;;7.93;6.47;;;;;;;;;;5016193;28;20189;-76
2021/07/03 06:43:18;;;;;;;10.47;6.83;;;;;;;;;;5017355;28;20510;-76
2021/07/03 06:46:22;;;;;;;10.27;6.77;;;;;;;;;;5017146;28;20185;-76
2021/07/03 06:49:26;;;;;;;8.03;7.00;;;;;;;;;;5017220;28;20217;-76
2021/07/03 06:52:30;;;;;;;9.47;7.07;;;;;;;;;;5016633;28;20209;-75
2021/07/03 06:55:34;;;;;;;7.50;6.73;;;;;;;;;;5004905;28;20189;-76
2021/07/03 06:58:38;;;;;;;8.87;6.70;;;;;;;;;;5015717;28;20216;-76
2021/07/03 07:01:42;;;;;;;10.30;7.07;;;;;;;;;;5005272;28;20190;-77
2021/07/03 07:04:46;;;;;;;9.13;6.80;;;;;;;;;;5015625;28;20193;-76
2021/07/03 07:07:50;;;;;;;8.80;6.60;;;;;;;;;;5004217;28;20229;-76
2021/07/03 07:10:54;;;;;;;9.63;6.73;;;;;;;;;;5015811;28;20177;-76
2021/07/03 07:13:58;;;;;;;11.83;6.30;;;;;;;;;;5015004;28;20201;-76
2021/07/03 07:17:03;;;;;;;8.27;5.70;;;;;;;;;;5016096;28;20186;-77
2021/07/03 07:20:08;;;;;;;7.70;5.90;;;;;;;;;;5016463;28;20186;-76
2021/07/03 07:23:12;;;;;;;9.93;6.47;;;;;;;;;;5015113;28;20190;-76
2021/07/03 07:26:16;;;;;;;8.80;5.73;;;;;;;;;;5014931;28;20205;-77
2021/07/03 07:29:20;;;;;;;12.43;6.77;;;;;;;;;;4996489;28;20213;-76
2021/07/03 07:32:24;;;;;;;10.33;6.63;;;;;;;;;;5001254;28;20556;-76
2021/07/03 07:35:28;;;;;;;7.83;5.80;;;;;;;;;;5004749;28;20201;-77
2021/07/03 07:38:32;;;;;;;6.57;5.63;;;;;;;;;;5017287;28;20217;-77
2021/07/03 07:41:37;;;;;;;6.23;5.57;;;;;;;;;;5017219;28;20181;-77
2021/07/03 07:44:41;;;;;;;8.40;5.83;;;;;;;;;;5016067;28;20173;-77
2021/07/03 07:47:46;;;;;;;8.37;5.60;;;;;;;;;;5016494;28;20221;-76
2021/07/03 07:50:50;;;;;;;8.50;5.63;;;;;;;;;;5003932;28;20212;-77
2021/07/03 07:53:54;;;;;;;8.03;5.70;;;;;;;;;;5014873;28;20210;-76
2021/07/03 07:56:59;;;;;;;6.67;5.30;;;;;;;;;;5015971;28;20191;-76
2021/07/03 08:00:04;;;;;;;7.23;5.80;;;;;;;;;;5003544;28;20196;-77
2021/07/03 08:03:18;;;;;;;6.00;5.40;;;;;;;;;;5016205;28;20183;-76
2021/07/03 08:06:38;;;;;;;7.00;5.10;;;;;;;;;;5014996;28;20183;-76
2021/07/03 08:09:44;;;;;;;6.57;5.20;;;;;;;;;;5003532;28;20180;-76
2021/07/03 08:12:48;;;;;;;7.15;5.28;;;;;;;;;;5015374;28;20205;-76
2021/07/03 08:15:52;;;;;;;7.45;5.25;;;;;;;;;;5015083;28;20201;-77
2021/07/03 08:18:56;;;;;;;13.13;5.00;;;;;;;;;;5015125;28;20223;-77
2021/07/03 08:22:01;;;;;;;6.70;4.25;;;;;;;;;;5014977;28;20215;-76
2021/07/03 08:25:05;;;;;;;5.40;4.90;;;;;;;;;;5015081;28;20171;-76
2021/07/03 08:28:10;;;;;;;6.88;4.85;;;;;;;;;;5013410;28;20223;-77
2021/07/03 08:31:15;;;;;;;5.28;4.78;;;;;;;;;;5014871;28;20207;-77
2021/07/03 08:34:20;;;;;;;7.78;5.18;;;;;;;;;;5013787;28;20207;-76
2021/07/03 08:37:24;;;;;;;7.15;4.80;;;;;;;;;;5014047;28;20183;-77
2021/07/03 08:40:31;;;;;;;6.85;5.07;;;;;;;;;;5002682;28;20184;-77
2021/07/03 08:43:42;;;;;;;5.22;4.65;;;;;;;;;;5013815;28;20664;-77
2021/07/03 08:46:47;;;;;;;6.13;4.32;;;;;;;;;;5014062;28;20182;-77
2021/07/03 08:49:56;;;;;;;6.63;5.10;;;;;;;;;;5014534;28;20200;-77
2021/07/03 08:53:01;;;;;;;5.72;4.40;;;;;;;;;;5013585;28;20204;-77
2021/07/03 08:56:05;;;;;;;4.65;4.22;;;;;;;;;;5013129;28;20197;-77
2021/07/03 08:59:16;;;;;;;5.22;4.60;;;;;;;;;;4994438;28;20218;-76
2021/07/03 09:02:31;;;;;;;5.63;4.45;;;;;;;;;;5014592;28;20189;-76
2021/07/03 09:05:35;;;;;;;5.47;4.55;;;;;;;;;;5013417;28;20211;-77
2021/07/03 09:08:39;;;;;;;4.88;4.32;;;;;;;;;;5014283;28;20216;-77
2021/07/03 09:11:53;;;;;;;4.85;4.32;;;;;;;;;;4994585;28;20527;-77
2021/07/03 09:15:14;;;;;;;5.30;4.40;;;;;;;;;;4993711;28;20175;-77
2021/07/03 09:18:18;;;;;;;4.32;3.92;;;;;;;;;;4994614;28;20554;-76
2021/07/03 09:21:22;;;;;;;6.55;4.60;;;;;;;;;;4994272;28;20202;-77
2021/07/03 09:24:31;;;;;;;5.88;4.68;;;;;;;;;;4994368;28;20186;-77
2021/07/03 09:27:39;;;;;;;5.57;4.28;;;;;;;;;;4993846;28;20214;-77
2021/07/03 09:30:46;;;;;;;11.23;4.97;;;;;;;;;;5005047;28;20186;-77
2021/07/03 09:33:52;;;;;;;4.85;4.00;;;;;;;;;;4993390;28;20202;-77
2021/07/03 09:37:03;;;;;;;5.93;4.25;;;;;;;;;;4994795;28;20182;-77
2021/07/03 09:40:08;;;;;;;5.43;4.10;;;;;;;;;;4994963;28;20638;-77
2021/07/03 09:43:13;;;;;;;8.13;4.70;;;;;;;;;;4994341;28;20170;-77
2021/07/03 09:46:33;;;;;;;5.68;4.25;;;;;;;;;;4994113;28;20182;-77
2021/07/03 09:49:39;;;;;;;4.35;3.75;;;;;;;;;;4993347;28;20211;-76
2021/07/03 09:52:43;;;;;;;4.28;3.83;;;;;;;;;;5005720;28;20183;-77
2021/07/03 09:55:47;;;;;;;5.18;4.13;;;;;;;;;;5011269;28;20201;-76
2021/07/03 09:58:51;;;;;;;4.38;3.97;;;;;;;;;;5014413;28;20221;-76
2021/07/03 10:01:56;;;;;;;4.90;3.65;;;;;;;;;;5013039;28;20178;-77
2021/07/03 10:05:00;;;;;;;4.15;3.60;;;;;;;;;;5008929;28;20186;-77
2021/07/03 10:08:08;;;;;;;4.10;3.50;;;;;;;;;;5001517;28;20217;-76
2021/07/03 10:11:17;;;;;;;3.95;3.55;;;;;;;;;;4993326;28;20179;-76
2021/07/03 10:14:22;;;;;;;8.95;5.60;;;;;;;;;;5000736;28;20218;-77
2021/07/03 10:17:28;;;;;;;5.68;4.13;;;;;;;;;;5012741;28;20177;-77
2021/07/03 10:20:33;;;;;;;4.43;3.70;;;;;;;;;;5013651;28;20178;-77
2021/07/03 10:23:43;;;;;;;5.47;4.22;;;;;;;;;;5027967;22;20233;-74
2021/07/03 10:26:50;;;;;;;4.60;3.90;;;;;;;;;;5022659;28;20201;-73
2021/07/03 10:29:57;;;;;;;5.38;4.40;;;;;;;;;;4994181;28;20206;-74
2021/07/03 10:33:05;;;;;;;4.20;3.80;;;;;;;;;;4993912;28;20179;-75
2021/07/03 10:36:20;;;;;;;4.90;3.80;;;;;;;;;;5014706;28;20186;-75
2021/07/03 10:39:32;;;;;;;4.45;4.03;;;;;;;;;;5012784;28;20230;-74
2021/07/03 10:42:36;;;;;;;5.15;3.65;;;;;;;;;;5012887;28;20174;-74
2021/07/03 10:45:58;;;;;;;5.75;4.35;;;;;;;;;;4981676;28;20202;-74
2021/07/03 10:49:09;;;;;;;4.30;3.90;;;;;;;;;;5005274;28;20226;-74
2021/07/03 10:52:16;;;;;;;4.60;3.70;;;;;;;;;;4993649;28;20195;-73
2021/07/03 10:55:40;;;;;;;3.90;3.60;;;;;;;;;;5004946;28;20652;-74
2021/07/03 10:58:45;;;;;;;4.53;4.13;;;;;;;;;;5005764;28;20234;-74
2021/07/03 11:01:51;;;;;;;6.47;3.75;;;;;;;;;;4992546;28;20514;-74
2021/07/03 11:04:56;;;;;;;4.63;4.07;;;;;;;;;;5009182;28;20201;-74
2021/07/03 11:08:12;;;;;;;5.15;4.20;;;;;;;;;;5006014;28;20222;-74
2021/07/03 11:11:17;;;;;;;4.53;3.90;;;;;;;;;;4993003;28;20198;-73
2021/07/03 11:14:22;;;;;;;5.05;4.05;;;;;;;;;;5004299;28;20221;-74
2021/07/03 11:17:27;;;;;;;4.43;3.80;;;;;;;;;;5011476;28;20181;-74
2021/07/03 11:20:32;;;;;;;5.20;3.65;;;;;;;;;;4992850;28;20182;-74
2021/07/03 11:23:37;;;;;;;6.38;4.05;;;;;;;;;;4993898;28;20677;-74
2021/07/03 11:26:41;;;;;;;5.47;4.22;;;;;;;;;;4999718;28;20198;-73
2021/07/03 11:29:45;;;;;;;4.35;3.67;;;;;;;;;;5002328;28;20197;-74
2021/07/03 11:32:55;;;;;;;7.20;3.80;;;;;;;;;;5011888;28;20177;-73
2021/07/03 11:36:02;;;;;;;4.70;3.53;;;;;;;;;;4993172;28;20198;-73
2021/07/03 11:39:07;;;;;;;3.97;3.58;;;;;;;;;;5003227;28;20231;-73
2021/07/03 11:42:11;;;;;;;5.18;3.67;;;;;;;;;;5000482;28;20197;-73
2021/07/03 11:45:18;;;;;;;4.93;4.22;;;;;;;;;;4992943;28;20195;-73
2021/07/03 11:48:24;;;;;;;4.97;3.63;;;;;;;;;;4998925;28;20210;-73
2021/07/03 11:51:28;;;;;;;4.85;3.55;;;;;;;;;;5002783;28;20526;-74
2021/07/03 11:54:32;;;;;;;4.22;3.75;;;;;;;;;;5004026;28;20226;-74
2021/07/03 11:57:41;;;;;;;7.65;4.00;;;;;;;;;;5014536;28;20230;-74
2021/07/03 12:00:48;;;;;;;8.77;3.58;;;;;;;;;;5010390;28;20673;-74
2021/07/03 12:03:54;;;;;;;4.85;3.85;;;;;;;;;;4976119;28;20234;-74
2021/07/03 12:07:00;;;;;;;3.70;3.38;;;;;;;;;;4964352;28;20541;-74
2021/07/03 12:10:07;;;;;;;4.25;3.83;;;;;;;;;;4979674;28;20183;-74
2021/07/03 12:13:25;;;;;;;4.93;4.05;;;;;;;;;;5014649;28;20637;-74
2021/07/03 12:16:29;;;;;;;6.47;4.43;;;;;;;;;;5014652;28;20178;-75
2021/07/03 12:19:38;;;;;;;5.80;4.18;;;;;;;;;;5014918;28;20182;-75
2021/07/03 12:22:53;;;;;;;5.15;4.30;;;;;;;;;;4979793;28;20692;-74
2021/07/03 12:25:58;;;;;;;4.57;3.72;;;;;;;;;;4976602;28;20627;-74
2021/07/03 12:29:11;;;;;;;9.23;4.97;;;;;;;;;;4995230;28;20222;-74
2021/07/03 12:32:17;;;;;;;4.80;3.95;;;;;;;;;;4995529;28;20182;-74
2021/07/03 12:35:21;;;;;;;4.05;3.65;;;;;;;;;;5012700;28;20213;-74
2021/07/03 12:38:27;;;;;;;4.25;3.85;;;;;;;;;;5006782;28;20230;-74
2021/07/03 12:41:31;;;;;;;4.38;3.35;;;;;;;;;;5014861;28;20668;-75
2021/07/03 12:44:42;;;;;;;4.43;3.90;;;;;;;;;;5013785;28;20197;-75
2021/07/03 12:47:47;;;;;;;6.75;3.78;;;;;;;;;;5012899;28;20217;-75
2021/07/03 12:50:58;;;;;;;4.60;4.15;;;;;;;;;;4975215;28;20184;-74
2021/07/03 12:54:03;;;;;;;4.75;3.30;;;;;;;;;;5000956;28;20201;-74
2021/07/03 12:57:07;;;;;;;5.95;3.55;;;;;;;;;;5014009;28;20190;-75
2021/07/03 13:00:14;;;;;;;3.97;3.53;;;;;;;;;;4991723;28;20620;-73
2021/07/03 13:03:19;;;;;;;4.70;3.75;;;;;;;;;;5007078;28;20214;-73
2021/07/03 13:06:25;;;;;;;5.68;3.67;;;;;;;;;;4995884;28;20186;-74
2021/07/03 13:09:30;;;;;;;6.20;3.85;;;;;;;;;;5003912;28;20226;-74
2021/07/03 13:12:34;;;;;;;4.10;3.70;;;;;;;;;;4994144;28;20514;-74
2021/07/03 13:15:38;;;;;;;4.97;3.53;;;;;;;;;;5001990;28;20202;-74
2021/07/03 13:18:43;;;;;;;4.68;3.88;;;;;;;;;;4992777;28;20225;-74
2021/07/03 13:21:47;;;;;;;4.32;3.92;;;;;;;;;;4994771;28;20206;-75
2021/07/03 13:24:51;;;;;;;4.35;3.40;;;;;;;;;;4994866;28;20179;-73
2021/07/03 13:27:56;;;;;;;4.50;3.40;;;;;;;;;;5012493;28;20566;-74
2021/07/03 13:31:00;;;;;;;4.68;3.45;;;;;;;;;;5014104;28;20174;-74
2021/07/03 13:34:04;;;;;;;5.20;4.22;;;;;;;;;;5008439;28;20685;-74
2021/07/03 13:37:08;;;;;;;3.92;3.47;;;;;;;;;;5013846;28;20209;-74
2021/07/03 13:40:13;;;;;;;3.70;3.22;;;;;;;;;;5012430;28;20632;-74
2021/07/03 13:43:17;;;;;;;3.40;3.08;;;;;;;;;;4994315;28;20182;-75
2021/07/03 13:46:21;;;;;;;5.18;4.00;;;;;;;;;;5005677;28;20201;-74
2021/07/03 13:49:25;;;;;;;6.05;3.97;;;;;;;;;;5001572;28;20225;-74
2021/07/03 13:52:29;;;;;;;4.72;4.05;;;;;;;;;;5013747;28;20185;-74
2021/07/03 13:55:34;;;;;;;6.28;3.40;;;;;;;;;;5006827;28;20214;-74
2021/07/03 13:58:38;;;;;;;3.40;3.10;;;;;;;;;;4997323;28;20221;-74
2021/07/03 14:01:41;;;;;;;4.72;3.45;;;;;;;;;;4993407;28;20195;-74
2021/07/03 14:04:46;;;;;;;4.30;3.88;;;;;;;;;;4993600;28;20183;-74
2021/07/03 14:07:50;;;;;;;5.68;3.20;;;;;;;;;;5006787;28;20229;-74
2021/07/03 14:10:55;;;;;;;4.70;3.20;;;;;;;;;;5012897;28;20178;-74
2021/07/03 14:13:59;;;;;;;5.00;3.53;;;;;;;;;;5011377;28;20186;-73
2021/07/03 14:17:04;;;;;;;4.63;3.08;;;;;;;;;;4980074;28;20657;-73
2021/07/03 14:20:10;;;;;;;3.28;2.80;;;;;;;;;;4991594;28;20202;-74
2021/07/03 14:23:14;;;;;;;4.40;3.10;;;;;;;;;;4978402;28;20241;-74
2021/07/03 14:26:18;;;;;;;3.47;3.17;;;;;;;;;;4994022;28;20319;-73
2021/07/03 14:29:23;;;;;;;4.80;3.05;;;;;;;;;;5004437;28;20570;-74
2021/07/03 14:32:27;;;;;;;3.90;3.05;;;;;;;;;;4994520;28;20178;-74
2021/07/03 14:35:31;;;;;;;3.42;3.08;;;;;;;;;;4994055;28;20210;-74
2021/07/03 14:38:35;;;;;;;4.07;2.90;;;;;;;;;;5001291;28;20222;-74
2021/07/03 14:41:39;;;;;;;5.97;2.75;;;;;;;;;;4993045;28;20665;-74
2021/07/03 14:44:43;;;;;;;5.15;3.47;;;;;;;;;;4998937;28;20190;-74
2021/07/03 14:47:48;;;;;;;4.00;3.05;;;;;;;;;;5003114;28;20226;-74
2021/07/03 14:50:51;;;;;;;4.88;2.70;;;;;;;;;;5012786;28;20190;-74
2021/07/03 14:53:55;;;;;;;3.17;2.88;;;;;;;;;;4974260;28;20187;-74
2021/07/03 14:57:00;;;;;;;6.93;3.05;;;;;;;;;;4986535;28;20190;-74
2021/07/03 15:00:07;;;;;;;3.53;3.05;;;;;;;;;;4996633;28;20197;-73
2021/07/03 15:03:12;;;;;;;5.60;2.88;;;;;;;;;;5012799;28;20186;-74
2021/07/03 15:06:17;;;;;;;3.30;2.90;;;;;;;;;;4974466;28;20192;-74
2021/07/03 15:09:21;;;;;;;2.72;2.53;;;;;;;;;;5000692;28;20565;-74
2021/07/03 15:12:25;;;;;;;6.88;3.15;;;;;;;;;;5003398;28;20194;-73
2021/07/03 15:15:30;;;;;;;4.90;3.10;;;;;;;;;;5004077;28;20206;-75
2021/07/03 15:18:34;;;;;;;3.30;2.83;;;;;;;;;;5001379;28;20225;-74
2021/07/03 15:21:38;;;;;;;4.35;2.83;;;;;;;;;;4986832;28;20198;-74
2021/07/03 15:24:42;;;;;;;3.22;2.67;;;;;;;;;;5006848;28;20201;-74
2021/07/03 15:27:47;;;;;;;3.78;2.50;;;;;;;;;;5010713;28;20692;-74
2021/07/03 15:30:52;;;;;;;3.35;2.80;;;;;;;;;;5001210;28;20197;-74
2021/07/03 15:33:56;;;;;;;3.63;2.88;;;;;;;;;;4997594;28;20198;-74
2021/07/03 15:37:00;;;;;;;6.30;3.15;;;;;;;;;;4998502;28;20553;-74
2021/07/03 15:40:05;;;;;;;4.45;3.40;;;;;;;;;;5006902;28;20195;-74
2021/07/03 15:43:11;;;;;;;10.20;3.30;;;;;;;;;;4995816;28;20186;-73
2021/07/03 15:46:15;;;;;;;3.25;2.95;;;;;;;;;;5008915;28;20201;-74
2021/07/03 15:49:19;;;;;;;3.65;2.90;;;;;;;;;;5011862;28;20585;-74
2021/07/03 15:52:23;;;;;;;6.25;3.30;;;;;;;;;;5011965;28;20184;-73
2021/07/03 15:55:27;;;;;;;8.02;4.10;;;;;;;;;;4992291;28;20231;-73
2021/07/03 15:58:31;;;;;;;4.88;3.28;;;;;;;;;;4998128;28;20226;-74
2021/07/03 16:01:36;;;;;;;3.90;2.95;;;;;;;;;;4992076;28;20198;-74
2021/07/03 16:04:41;;;;;;;3.13;2.67;;;;;;;;;;5003612;28;20662;-73
2021/07/03 16:07:45;;;;;;;6.68;3.20;;;;;;;;;;5011881;28;20228;-74
2021/07/03 16:10:50;;;;;;;5.22;3.38;;;;;;;;;;4998488;28;20198;-74
2021/07/03 16:13:54;;;;;;;5.93;3.40;;;;;;;;;;5000716;28;20199;-73
2021/07/03 16:16:58;;;;;;;4.28;2.95;;;;;;;;;;4992368;28;20524;-73
2021/07/03 16:20:05;;;;;;;3.05;2.75;;;;;;;;;;4991642;28;20652;-72
2021/07/03 16:23:10;;;;;;;4.43;3.40;;;;;;;;;;4991083;28;20222;-73
2021/07/03 16:26:14;;;;;;;4.40;3.30;;;;;;;;;;4991268;28;20210;-73
2021/07/03 16:29:18;;;;;;;4.82;3.28;;;;;;;;;;4992287;28;20730;-73
2021/07/03 16:32:22;;;;;;;3.55;3.25;;;;;;;;;;4999477;28;20185;-73
2021/07/03 16:35:27;;;;;;;5.50;3.63;;;;;;;;;;4995159;28;20206;-73
2021/07/03 16:38:32;;;;;;;3.30;3.00;;;;;;;;;;5002306;28;20233;-73
2021/07/03 16:41:36;;;;;;;3.50;3.20;;;;;;;;;;5003921;28;20189;-73
2021/07/03 16:44:40;;;;;;;5.03;3.37;;;;;;;;;;5002168;28;20195;-73
2021/07/03 16:47:44;;;;;;;4.17;3.30;;;;;;;;;;4997852;28;20220;-73
2021/07/03 16:50:49;;;;;;;4.27;3.70;;;;;;;;;;5003447;28;20202;-73
2021/07/03 16:53:53;;;;;;;5.60;3.43;;;;;;;;;;5002367;28;20196;-73
2021/07/03 16:56:57;;;;;;;6.07;3.00;;;;;;;;;;5008834;28;20221;-73
2021/07/03 17:00:01;;;;;;;7.87;3.70;;;;;;;;;;5010488;28;20701;-73
2021/07/03 17:03:05;;;;;;;100.23;52.57;;;;;;;;;;5010781;28;20187;-73
2021/07/03 17:06:11;;;;;;;127.43;89.60;;;;;;;;;;4998644;28;20207;-73
2021/07/03 17:09:15;;;;;;;78.33;65.07;;;;;;;;;;4993558;28;20780;-73
2021/07/03 17:12:19;;;;;;;32.37;7.60;;;;;;;;;;4992425;28;20204;-73
2021/07/03 17:15:24;;;;;;;13.70;5.13;;;;;;;;;;5010414;28;20206;-72
2021/07/03 17:18:28;;;;;;;5.90;4.50;;;;;;;;;;5010545;28;20232;-73
2021/07/03 17:21:32;;;;;;;230.07;185.90;;;;;;;;;;5022914;23;20233;-77
2021/07/03 17:24:37;;;;;;;467.33;373.23;;;;;;;;;;4983742;28;20191;-77
2021/07/03 17:27:41;;;;;;;1118.30;818.27;;;;;;;;;;5013562;28;20577;-76
2021/07/03 17:30:45;;;;;;;764.07;598.20;;;;;;;;;;4991862;28;20227;-77
2021/07/03 17:33:49;;;;;;;577.33;478.23;;;;;;;;;;5003536;28;20196;-77
2021/07/03 17:36:53;;;;;;;286.43;249.87;;;;;;;;;;5015197;28;20220;-76
2021/07/03 17:39:58;;;;;;;41.30;35.87;;;;;;;;;;4985956;28;20217;-77
2021/07/03 17:43:02;;;;;;;5.27;4.23;;;;;;;;;;4991421;28;20309;-77
2021/07/03 17:46:06;;;;;;;6.93;3.40;;;;;;;;;;5015381;28;20176;-76
2021/07/03 17:49:10;;;;;;;5.57;3.60;;;;;;;;;;5002553;28;20225;-78
2021/07/03 17:52:15;;;;;;;6.03;3.50;;;;;;;;;;5015142;28;20194;-77
2021/07/03 17:55:19;;;;;;;5.93;4.07;;;;;;;;;;4991300;28;20527;-77
2021/07/03 17:58:24;;;;;;;20.60;11.03;;;;;;;;;;5000643;28;20211;-76
2021/07/03 18:01:30;;;;;;;5.93;3.67;;;;;;;;;;4971212;28;20194;-76
2021/07/03 18:04:35;;;;;;;7.80;3.63;;;;;;;;;;4993398;28;20186;-76
2021/07/03 18:07:40;;;;;;;6.50;3.63;;;;;;;;;;4994417;28;20219;-76
2021/07/03 18:10:45;;;;;;;3.80;3.40;;;;;;;;;;5013023;28;20201;-76
2021/07/03 18:13:50;;;;;;;5.37;3.50;;;;;;;;;;5013706;28;20173;-75
2021/07/03 18:16:54;;;;;;;5.93;3.87;;;;;;;;;;5013413;28;20210;-76
2021/07/03 18:19:58;;;;;;;4.80;3.63;;;;;;;;;;5002014;28;20197;-77
2021/07/03 18:23:03;;;;;;;4.67;3.40;;;;;;;;;;4990947;28;20617;-77
2021/07/03 18:26:07;;;;;;;4.50;4.10;;;;;;;;;;5014432;28;20182;-76